Time;durP1;ratioP1;P1;durP2;ratioP2;P2;SDS_P1;SDS_P2;PMS_P1;PMS_P2;Temp;Humidity;BMP_temperature;BMP_pressure;BME280_temperature;BME280_humidity;BME280_pressure;Samples;Min_cycle;Max_cycle;Signal;HPM_P1;HPM_P2
2022/04/07 00:00:39;;;;;;;6.43;3.80;;;;;;;10.68;100.00;97224.41;4978344;28;20203;-79
2022/04/07 00:03:09;;;;;;;3.77;2.77;;;;;;;10.64;100.00;97205.34;4980006;28;20221;-79
2022/04/07 00:05:40;;;;;;;3.10;2.70;;;;;;;10.61;100.00;97234.72;4985841;28;20192;-78
2022/04/07 00:08:10;;;;;;;5.37;3.20;;;;;;;10.55;100.00;97206.22;4980027;28;20192;-78
2022/04/07 00:10:42;;;;;;;3.97;3.27;;;;;;;10.44;100.00;97215.16;4979863;28;20227;-79
2022/04/07 00:13:10;;;;;;;4.53;2.97;;;;;;;10.47;100.00;97209.56;4973014;28;20196;-78
2022/04/07 00:15:39;;;;;;;3.57;3.13;;;;;;;10.46;100.00;97199.97;4971360;28;20226;-79
2022/04/07 00:18:08;;;;;;;4.53;3.03;;;;;;;10.41;100.00;97196.09;4972725;28;20279;-78
2022/04/07 00:20:37;;;;;;;5.17;2.93;;;;;;;10.35;100.00;97186.09;4976933;28;20202;-78
2022/04/07 00:23:07;;;;;;;4.93;3.50;;;;;;;10.33;100.00;97199.47;4974806;28;20204;-79
2022/04/07 00:25:35;;;;;;;5.83;3.07;;;;;;;10.42;100.00;97187.16;4973998;28;20240;-78
2022/04/07 00:28:05;;;;;;;6.60;3.33;;;;;;;10.40;100.00;97191.78;4979139;28;20203;-78
2022/04/07 00:30:40;;;;;;;5.50;3.37;;;;;;;10.42;100.00;97177.44;4960522;28;20200;-78
2022/04/07 00:33:10;;;;;;;6.20;2.67;;;;;;;10.47;100.00;97171.69;4974122;28;20195;-78
2022/04/07 00:35:38;;;;;;;4.90;2.93;;;;;;;10.38;100.00;97162.81;4972327;28;20204;-78
2022/04/07 00:38:10;;;;;;;5.07;3.07;;;;;;;10.35;100.00;97168.41;4967934;28;20203;-78
2022/04/07 00:40:39;;;;;;;4.53;2.70;;;;;;;10.32;100.00;97156.28;4967766;28;20192;-78
2022/04/07 00:43:08;;;;;;;4.10;3.07;;;;;;;10.34;100.00;97158.81;5007419;28;20195;-78
2022/04/07 00:45:38;;;;;;;4.20;2.80;;;;;;;10.26;100.00;97153.41;5006321;28;20209;-78
2022/04/07 00:48:06;;;;;;;4.67;3.00;;;;;;;10.35;100.00;97149.06;4994706;28;20740;-78
2022/04/07 00:50:35;;;;;;;5.30;3.10;;;;;;;10.31;100.00;97145.84;5008889;28;20274;-79
2022/04/07 00:53:03;;;;;;;5.13;3.20;;;;;;;10.30;100.00;97138.91;4992636;28;20195;-78
2022/04/07 00:55:35;;;;;;;3.97;2.57;;;;;;;10.21;100.00;97132.63;4983879;28;20203;-78
2022/04/07 00:58:03;;;;;;;5.10;3.03;;;;;;;10.13;100.00;97134.34;4993551;28;20226;-78
2022/04/07 01:00:34;;;;;;;3.30;2.50;;;;;;;10.15;100.00;97129.75;4987791;28;20196;-79
2022/04/07 01:03:02;;;;;;;3.70;2.90;;;;;;;10.14;100.00;97128.09;4971183;28;20204;-78
2022/04/07 01:05:31;;;;;;;7.17;2.80;;;;;;;10.06;100.00;97131.47;4975724;28;20203;-78
2022/04/07 01:08:01;;;;;;;3.90;2.60;;;;;;;10.09;100.00;97117.94;4977045;28;20236;-79
2022/04/07 01:10:30;;;;;;;2.57;2.23;;;;;;;10.06;100.00;97110.31;4977294;28;20203;-79
2022/04/07 01:13:01;;;;;;;5.17;2.67;;;;;;;10.10;100.00;97118.75;4974320;28;20219;-78
2022/04/07 01:15:31;;;;;;;3.97;2.67;;;;;;;10.10;100.00;97113.47;4975123;28;20196;-78
2022/04/07 01:18:03;;;;;;;2.93;2.30;;;;;;;10.11;100.00;97109.84;4974260;28;20397;-79
2022/04/07 01:20:33;;;;;;;3.57;2.43;;;;;;;10.13;100.00;97108.72;4976694;28;20203;-79
2022/04/07 01:23:02;;;;;;;3.30;2.70;;;;;;;10.02;100.00;97100.97;4975879;28;20234;-78
2022/04/07 01:25:34;;;;;;;6.87;2.90;;;;;;;10.04;100.00;97105.16;4974410;28;20235;-78
2022/04/07 01:28:04;;;;;;;4.20;2.50;;;;;;;10.12;100.00;97096.47;4976042;28;20199;-79
2022/04/07 01:30:34;;;;;;;4.67;2.63;;;;;;;10.08;100.00;97091.63;4971599;28;20204;-78
2022/04/07 01:33:03;;;;;;;3.97;2.40;;;;;;;10.06;100.00;97090.97;4973375;28;20226;-78
2022/04/07 01:35:32;;;;;;;4.63;2.73;;;;;;;10.03;100.00;97100.81;4974886;28;20199;-78
2022/04/07 01:38:01;;;;;;;2.90;2.40;;;;;;;10.01;100.00;97086.91;4975632;28;20192;-78
2022/04/07 01:40:35;;;;;;;5.20;2.43;;;;;;;9.92;100.00;97089.59;4983016;28;20482;-78
2022/04/07 01:43:08;;;;;;;5.20;3.13;;;;;;;9.81;100.00;97076.56;4974834;28;20199;-78
2022/04/07 01:45:37;;;;;;;4.50;3.20;;;;;;;9.68;100.00;97077.72;4970175;28;20211;-78
2022/04/07 01:48:08;;;;;;;4.40;2.97;;;;;;;9.83;100.00;97066.69;4972832;28;20714;-79
2022/04/07 01:50:38;;;;;;;5.40;3.77;;;;;;;9.63;100.00;97063.25;4973944;28;20199;-79
2022/04/07 01:53:07;;;;;;;5.70;3.13;;;;;;;9.66;100.00;97063.84;4909570;29;20226;-80
2022/04/07 01:55:40;;;;;;;6.03;3.57;;;;;;;9.41;100.00;97065.28;4916234;29;20205;-79
2022/04/07 01:58:16;;;;;;;5.17;3.57;;;;;;;9.38;100.00;97070.84;4918212;29;20202;-79
2022/04/07 02:00:46;;;;;;;4.87;3.50;;;;;;;9.48;100.00;97064.72;4915556;29;20193;-78
2022/04/07 02:03:15;;;;;;;4.83;3.40;;;;;;;9.54;100.00;97056.19;4914758;29;20377;-78
2022/04/07 02:05:43;;;;;;;3.53;3.00;;;;;;;9.42;100.00;97058.19;4916550;29;20213;-78
2022/04/07 02:08:12;;;;;;;6.23;3.37;;;;;;;9.45;100.00;97058.72;4913448;29;20267;-78
2022/04/07 02:10:40;;;;;;;5.00;3.53;;;;;;;9.34;100.00;97052.78;4927443;28;20210;-79
2022/04/07 02:13:08;;;;;;;3.97;3.17;;;;;;;9.46;100.00;97051.66;4976920;28;20230;-78
2022/04/07 02:15:38;;;;;;;4.83;3.50;;;;;;;9.38;100.00;97048.88;4974650;28;20196;-78
2022/04/07 02:18:07;;;;;;;5.60;3.17;;;;;;;9.50;100.00;97034.53;4977154;28;20279;-79
2022/04/07 02:20:36;;;;;;;4.70;3.10;;;;;;;9.61;100.00;97023.78;4970509;28;20267;-78
2022/04/07 02:23:05;;;;;;;5.80;2.93;;;;;;;9.59;100.00;97022.25;4973656;28;20206;-78
2022/04/07 02:25:33;;;;;;;4.63;3.40;;;;;;;9.64;100.00;97023.47;4973018;28;20228;-79
2022/04/07 02:28:02;;;;;;;6.00;3.10;;;;;;;9.70;100.00;97022.91;4970064;28;20203;-78
2022/04/07 02:30:31;;;;;;;4.37;3.20;;;;;;;9.71;100.00;97023.75;4969170;28;20199;-78
2022/04/07 02:33:01;;;;;;;5.57;3.00;;;;;;;9.65;100.00;97017.25;4973097;28;20241;-79
2022/04/07 02:35:30;;;;;;;6.10;3.50;;;;;;;9.59;100.00;97022.25;4974280;28;20199;-78
2022/04/07 02:37:59;;;;;;;5.33;2.90;;;;;;;9.66;100.00;97010.16;4973307;28;20220;-78
2022/04/07 02:40:28;;;;;;;3.87;3.10;;;;;;;9.63;100.00;97003.31;4973217;28;20199;-79
2022/04/07 02:42:56;;;;;;;4.13;2.60;;;;;;;9.74;100.00;97007.56;4974436;28;20195;-78
2022/04/07 02:45:26;;;;;;;3.27;2.90;;;;;;;9.78;100.00;97006.31;4974267;28;20332;-78
2022/04/07 02:47:54;;;;;;;3.90;2.77;;;;;;;9.80;100.00;97000.88;4973248;28;20262;-78
2022/04/07 02:50:26;;;;;;;3.20;2.80;;;;;;;9.80;100.00;96998.25;4979762;28;20280;-78
2022/04/07 02:52:54;;;;;;;2.90;2.70;;;;;;;9.89;100.00;96990.25;4971811;28;20216;-78
2022/04/07 02:55:24;;;;;;;3.53;3.20;;;;;;;9.96;100.00;97001.91;4972727;28;20199;-79
2022/04/07 02:57:52;;;;;;;4.23;2.70;;;;;;;10.01;100.00;96977.66;4973408;28;20196;-79
2022/04/07 03:00:20;;;;;;;3.40;2.57;;;;;;;9.96;100.00;96966.72;4972043;28;20204;-78
2022/04/07 03:02:49;;;;;;;3.27;2.90;;;;;;;9.90;100.00;96981.34;4976358;28;20250;-78
2022/04/07 03:05:17;;;;;;;3.23;2.90;;;;;;;9.98;100.00;96980.63;4972764;28;20307;-79
2022/04/07 03:07:50;;;;;;;3.20;2.60;;;;;;;9.92;100.00;96974.09;4971382;28;20210;-78
2022/04/07 03:10:18;;;;;;;3.67;2.63;;;;;;;9.91;100.00;96972.44;4972838;28;20199;-79
2022/04/07 03:12:46;;;;;;;4.60;3.13;;;;;;;9.98;100.00;96989.38;4981771;28;20227;-78
2022/04/07 03:15:16;;;;;;;4.10;3.00;;;;;;;9.93;100.00;96977.56;4977336;28;20211;-78
2022/04/07 03:17:45;;;;;;;3.57;2.60;;;;;;;9.98;100.00;96983.25;4980813;28;20238;-78
2022/04/07 03:20:13;;;;;;;3.10;2.40;;;;;;;9.85;100.00;96988.91;4985052;28;20239;-78
2022/04/07 03:22:43;;;;;;;3.50;2.57;;;;;;;9.79;100.00;96996.59;4991247;28;20250;-78
2022/04/07 03:25:14;;;;;;;2.80;2.50;;;;;;;9.59;100.00;96987.91;4981306;28;20219;-78
2022/04/07 03:27:42;;;;;;;2.23;2.00;;;;;;;9.59;100.00;96987.91;4978095;28;20196;-78
2022/04/07 03:30:12;;;;;;;2.27;2.07;;;;;;;9.55;100.00;96995.28;4972700;28;20208;-77
2022/04/07 03:32:40;;;;;;;2.13;1.93;;;;;;;9.53;100.00;96999.88;4980304;28;20231;-78
2022/04/07 03:35:09;;;;;;;2.60;2.23;;;;;;;9.49;100.00;96998.50;4977683;28;20192;-78
2022/04/07 03:37:38;;;;;;;2.23;2.03;;;;;;;9.49;100.00;96990.59;4974156;28;20208;-78
2022/04/07 03:40:08;;;;;;;2.10;1.90;;;;;;;9.53;100.00;96977.91;4976537;28;20202;-79
2022/04/07 03:42:44;;;;;;;2.50;2.30;;;;;;;9.56;100.00;96980.28;4937135;29;20204;-78
2022/04/07 03:45:14;;;;;;;3.73;2.90;;;;;;;9.52;100.00;96977.06;4936831;29;20219;-78
2022/04/07 03:47:42;;;;;;;3.30;3.00;;;;;;;9.45;100.00;96987.38;4936912;29;20284;-78
2022/04/07 03:50:14;;;;;;;5.10;3.00;;;;;;;9.46;100.00;96991.72;4936663;29;20197;-78
2022/04/07 03:52:42;;;;;;;3.10;2.87;;;;;;;9.36;100.00;96993.56;4931531;29;20257;-78
2022/04/07 03:55:11;;;;;;;4.53;3.30;;;;;;;9.36;100.00;96990.94;4935357;29;20189;-78
2022/04/07 03:57:40;;;;;;;3.50;2.90;;;;;;;9.38;100.00;96994.25;4936588;29;20280;-78
2022/04/07 04:00:12;;;;;;;4.53;2.83;;;;;;;9.42;100.00;96977.13;4936034;29;20657;-78
2022/04/07 04:02:41;;;;;;;2.40;2.20;;;;;;;9.46;100.00;96983.78;4936402;29;20194;-78
2022/04/07 04:05:11;;;;;;;2.43;2.20;;;;;;;9.49;100.00;96956.25;4930818;29;20280;-79
2022/04/07 04:07:39;;;;;;;2.57;2.30;;;;;;;9.50;100.00;96980.84;4963167;28;20215;-79
2022/04/07 04:10:07;;;;;;;3.07;2.20;;;;;;;9.54;100.00;96966.34;4975682;28;20196;-78
2022/04/07 04:12:36;;;;;;;3.17;2.40;;;;;;;9.53;100.00;96964.69;4934022;29;20202;-78
2022/04/07 04:15:09;;;;;;;2.20;2.00;;;;;;;9.61;100.00;96947.13;4905602;29;20775;-79
2022/04/07 04:17:41;;;;;;;2.77;1.90;;;;;;;9.57;100.00;96944.94;4937518;29;20282;-79
2022/04/07 04:20:11;;;;;;;3.80;2.20;;;;;;;9.56;100.00;96944.13;4923103;28;20292;-78
2022/04/07 04:22:40;;;;;;;3.90;2.07;;;;;;;9.52;100.00;96934.81;4933862;29;20193;-78
2022/04/07 04:25:10;;;;;;;2.70;2.10;;;;;;;9.57;100.00;96929.09;4933834;29;20280;-78
2022/04/07 04:27:40;;;;;;;2.20;2.00;;;;;;;9.54;100.00;96924.09;4937626;29;20194;-78
2022/04/07 04:30:10;;;;;;;2.40;2.20;;;;;;;9.54;100.00;96910.88;4947937;28;20195;-78
2022/04/07 04:32:43;;;;;;;2.47;2.27;;;;;;;9.64;100.00;96914.28;4976512;28;20192;-79
2022/04/07 04:35:11;;;;;;;3.60;2.10;;;;;;;9.47;100.00;96908.00;4976532;28;20221;-78
2022/04/07 04:37:40;;;;;;;3.10;2.10;;;;;;;9.57;100.00;96900.84;4971408;28;20208;-78
2022/04/07 04:40:09;;;;;;;3.93;1.83;;;;;;;9.43;100.00;96903.97;4970642;28;20218;-78
2022/04/07 04:42:40;;;;;;;5.37;2.30;;;;;;;9.37;100.00;96905.41;4976381;28;20222;-78
2022/04/07 04:45:09;;;;;;;3.47;2.00;;;;;;;9.49;100.00;96902.56;4970925;28;20214;-78
2022/04/07 04:47:41;;;;;;;2.67;2.30;;;;;;;9.53;100.00;96904.75;4976041;28;20223;-79
2022/04/07 04:50:13;;;;;;;3.07;2.30;;;;;;;9.37;100.00;96896.66;4979322;28;20199;-78
2022/04/07 04:52:42;;;;;;;3.73;2.50;;;;;;;9.39;100.00;96899.97;4970661;28;20211;-78
2022/04/07 04:55:11;;;;;;;2.67;2.47;;;;;;;9.36;100.00;96905.53;4974736;28;20227;-78
2022/04/07 04:57:39;;;;;;;2.83;2.30;;;;;;;9.38;100.00;96900.97;4975961;28;20192;-78
2022/04/07 05:00:08;;;;;;;3.13;2.83;;;;;;;9.31;100.00;96897.22;4977987;28;20230;-78
2022/04/07 05:02:39;;;;;;;3.33;3.03;;;;;;;9.30;100.00;96906.13;4958306;28;20195;-78
2022/04/07 05:05:11;;;;;;;5.23;2.53;;;;;;;9.28;100.00;96905.44;4976975;28;20200;-78
2022/04/07 05:07:39;;;;;;;4.80;3.30;;;;;;;9.27;100.00;96890.59;4973288;28;20230;-78
2022/04/07 05:10:09;;;;;;;3.40;2.70;;;;;;;9.31;100.00;96882.22;4970650;28;20279;-78
2022/04/07 05:12:37;;;;;;;3.87;3.47;;;;;;;9.29;100.00;96884.16;4973251;28;20204;-78
2022/04/07 05:15:07;;;;;;;3.50;3.10;;;;;;;9.25;100.00;96880.13;4977993;28;20247;-78
2022/04/07 05:17:36;;;;;;;3.43;3.10;;;;;;;9.25;100.00;96876.66;4973288;28;20286;-78
2022/04/07 05:20:05;;;;;;;5.20;3.30;;;;;;;9.29;100.00;96878.06;4975709;28;20198;-78
2022/04/07 05:22:36;;;;;;;3.60;3.00;;;;;;;9.13;100.00;96874.22;4973672;28;20192;-78
2022/04/07 05:25:05;;;;;;;3.57;3.27;;;;;;;9.32;100.00;96868.03;4970567;28;20242;-78
2022/04/07 05:27:36;;;;;;;3.70;3.07;;;;;;;9.26;100.00;96863.31;4972733;28;20200;-78
2022/04/07 05:30:06;;;;;;;7.17;3.70;;;;;;;9.26;100.00;96867.78;4975102;28;20721;-78
2022/04/07 05:32:35;;;;;;;16.10;9.10;;;;;;;9.25;100.00;96860.81;4922915;29;20189;-78
2022/04/07 05:35:04;;;;;;;2.97;2.67;;;;;;;9.34;100.00;96870.50;4950868;28;20228;-78
2022/04/07 05:37:32;;;;;;;3.23;2.50;;;;;;;9.39;100.00;96849.78;4951222;28;20699;-78
2022/04/07 05:40:04;;;;;;;3.60;2.70;;;;;;;9.44;100.00;96861.56;4911980;29;20370;-78
2022/04/07 05:42:32;;;;;;;3.20;2.73;;;;;;;9.47;100.00;96847.25;4915760;29;20194;-79
2022/04/07 05:45:00;;;;;;;3.37;2.97;;;;;;;9.49;100.00;96832.06;4915817;29;20233;-78
2022/04/07 05:47:28;;;;;;;6.47;4.57;;;;;;;9.59;100.00;96826.72;4915548;29;20210;-78
2022/04/07 05:49:58;;;;;;;13.60;9.40;;;;;;;9.61;100.00;96836.16;4918168;29;20192;-78
2022/04/07 05:52:27;;;;;;;7.73;5.73;;;;;;;9.62;100.00;96829.88;4952610;28;20269;-78
2022/04/07 05:54:55;;;;;;;3.53;2.93;;;;;;;9.58;100.00;96836.44;4950232;28;20220;-78
2022/04/07 05:57:30;;;;;;;2.63;2.33;;;;;;;9.61;100.00;96825.56;4951787;28;20296;-78
2022/04/07 06:00:04;;;;;;;2.90;2.60;;;;;;;9.42;100.00;96831.81;4953587;28;20296;-77
2022/04/07 06:02:32;;;;;;;2.40;2.20;;;;;;;9.52;100.00;96823.81;4953273;28;20283;-78
2022/04/07 06:05:01;;;;;;;4.47;2.80;;;;;;;9.45;100.00;96825.41;4965100;28;20199;-78
2022/04/07 06:07:29;;;;;;;3.87;2.57;;;;;;;9.60;100.00;96809.88;4971281;28;20196;-78
2022/04/07 06:09:58;;;;;;;3.27;2.50;;;;;;;9.61;100.00;96799.16;4974035;28;20200;-80
2022/04/07 06:12:28;;;;;;;5.87;3.23;;;;;;;9.50;100.00;96801.19;4977167;28;20200;-80
2022/04/07 06:15:00;;;;;;;3.40;2.87;;;;;;;9.57;100.00;96789.88;4971900;28;20222;-80
2022/04/07 06:17:36;;;;;;;3.50;3.00;;;;;;;9.61;100.00;96780.66;4972994;28;20187;-80
2022/04/07 06:20:06;;;;;;;5.33;2.83;;;;;;;9.71;100.00;96770.00;4975876;28;20246;-80
2022/04/07 06:22:35;;;;;;;3.27;2.57;;;;;;;9.75;100.00;96774.03;4974740;28;20204;-80
2022/04/07 06:25:04;;;;;;;3.23;2.70;;;;;;;9.79;100.00;96756.03;4932526;29;20282;-79
2022/04/07 06:27:38;;;;;;;4.13;2.47;;;;;;;9.88;100.00;96760.41;4858153;29;20215;-80
2022/04/07 06:30:09;;;;;;;2.90;2.30;;;;;;;9.94;100.00;96744.78;4859224;29;20208;-80
2022/04/07 06:32:38;;;;;;;3.90;2.67;;;;;;;9.93;100.00;96737.78;4856769;29;20675;-80
2022/04/07 06:35:09;;;;;;;2.63;2.43;;;;;;;9.88;100.00;96734.81;4856268;29;20304;-80
2022/04/07 06:37:51;;;;;;;2.60;2.40;;;;;;;9.92;100.00;96722.09;4855553;29;20203;-80
2022/04/07 06:40:21;;;;;;;3.57;2.30;;;;;;;9.86;100.00;96726.19;4857447;29;20233;-80
2022/04/07 06:42:53;;;;;;;3.33;2.70;;;;;;;9.81;100.00;96727.63;4878444;29;20204;-80
2022/04/07 06:45:25;;;;;;;3.00;2.47;;;;;;;9.80;100.00;96710.13;4915174;29;20198;-80
2022/04/07 06:47:55;;;;;;;3.17;2.73;;;;;;;9.79;100.00;96709.28;4916571;28;20225;-80
2022/04/07 06:50:27;;;;;;;3.87;2.93;;;;;;;9.79;100.00;96717.22;4876564;29;20199;-80
2022/04/07 06:52:57;;;;;;;5.83;2.80;;;;;;;9.75;100.00;96714.06;4919499;29;20193;-81
2022/04/07 06:55:28;;;;;;;3.90;2.90;;;;;;;9.69;100.00;96696.16;4929675;29;20221;-81
2022/04/07 06:58:03;;;;;;;5.00;2.83;;;;;;;9.65;100.00;96696.59;4934288;29;20192;-81
2022/04/07 07:00:39;;;;;;;2.87;2.60;;;;;;;9.60;100.00;96691.78;4928128;29;20205;-79
2022/04/07 07:03:08;;;;;;;2.47;2.20;;;;;;;9.49;100.00;96686.75;4935004;29;20295;-80
2022/04/07 07:05:37;;;;;;;2.93;2.57;;;;;;;9.57;100.00;96683.34;4935643;29;20205;-82
2022/04/07 07:08:13;;;;;;;3.00;2.17;;;;;;;9.54;100.00;96681.81;4935835;29;20288;-81
2022/04/07 07:10:42;;;;;;;3.13;2.30;;;;;;;9.41;100.00;96674.28;4932185;29;20209;-80
2022/04/07 07:13:12;;;;;;;2.30;2.10;;;;;;;9.41;100.00;96670.81;4872897;29;20259;-80
2022/04/07 07:15:41;;;;;;;4.23;1.97;;;;;;;9.33;100.00;96681.31;4901589;29;20308;-80
2022/04/07 07:18:10;;;;;;;2.40;2.20;;;;;;;9.21;100.00;96670.16;4909600;29;20197;-81
2022/04/07 07:20:38;;;;;;;2.63;2.33;;;;;;;9.12;100.00;96679.81;4912396;29;20238;-81
2022/04/07 07:23:07;;;;;;;4.53;2.53;;;;;;;9.15;100.00;96671.56;4914924;29;20198;-81
2022/04/07 07:25:36;;;;;;;4.53;2.57;;;;;;;9.06;100.00;96669.00;4911081;29;20240;-80
2022/04/07 07:28:05;;;;;;;2.70;2.47;;;;;;;9.03;100.00;96664.03;4914352;29;20217;-80
2022/04/07 07:30:35;;;;;;;4.63;2.33;;;;;;;8.96;100.00;96668.25;4922199;28;20207;-80
2022/04/07 07:33:04;;;;;;;3.00;2.30;;;;;;;8.98;100.00;96661.03;4976453;28;20196;-80
2022/04/07 07:35:32;;;;;;;2.67;2.43;;;;;;;9.01;100.00;96664.19;4978072;28;20220;-79
2022/04/07 07:38:04;;;;;;;3.80;2.60;;;;;;;8.98;100.00;96651.31;4975753;28;20285;-79
2022/04/07 07:40:33;;;;;;;2.73;2.50;;;;;;;8.99;100.00;96647.69;4976455;28;20191;-78
2022/04/07 07:43:02;;;;;;;2.40;2.20;;;;;;;8.97;100.00;96652.25;4927975;28;20211;-78
2022/04/07 07:45:33;;;;;;;4.20;2.70;;;;;;;9.00;100.00;96645.88;4978129;28;20287;-78
2022/04/07 07:48:24;;;;;;;2.87;2.60;;;;;;;9.03;100.00;96637.63;4979571;28;20212;-78
2022/04/07 07:50:53;;;;;;;3.70;2.93;;;;;;;8.99;100.00;96645.03;4976946;28;20210;-77
2022/04/07 07:53:22;;;;;;;3.97;2.40;;;;;;;8.99;100.00;96623.09;4976574;28;20196;-78
2022/04/07 07:55:54;;;;;;;3.00;2.37;;;;;;;8.96;100.00;96633.94;4972926;28;20218;-77
2022/04/07 07:58:25;;;;;;;4.80;2.60;;;;;;;8.93;100.00;96619.25;4978463;28;20199;-78
2022/04/07 08:00:54;;;;;;;2.60;2.10;;;;;;;8.99;100.00;96607.25;4977227;28;20275;-78
2022/04/07 08:03:24;;;;;;;3.60;2.20;;;;;;;9.03;100.00;96608.59;4974811;28;20615;-78
2022/04/07 08:05:52;;;;;;;2.40;2.10;;;;;;;9.02;100.00;96602.50;4972224;28;20877;-78
2022/04/07 08:08:21;;;;;;;2.43;2.00;;;;;;;9.00;100.00;96595.72;4974824;28;20211;-77
2022/04/07 08:10:50;;;;;;;1.97;1.83;;;;;;;8.98;100.00;96587.94;4971134;28;20278;-78
2022/04/07 08:13:20;;;;;;;3.43;2.37;;;;;;;9.08;100.00;96578.13;4974783;28;20195;-78
2022/04/07 08:15:50;;;;;;;2.53;2.23;;;;;;;9.08;100.00;96582.59;4971340;28;20224;-77
2022/04/07 08:18:19;;;;;;;3.27;2.17;;;;;;;9.09;100.00;96560.47;4974486;28;20313;-78
2022/04/07 08:20:49;;;;;;;2.87;1.90;;;;;;;9.10;100.00;96562.97;4956180;28;20225;-78
2022/04/07 08:23:17;;;;;;;3.07;2.00;;;;;;;9.10;100.00;96562.97;4969526;28;20207;-78
2022/04/07 08:25:45;;;;;;;3.53;1.97;;;;;;;9.12;100.00;96541.69;4975408;28;20235;-78
2022/04/07 08:28:16;;;;;;;3.07;2.00;;;;;;;9.13;100.00;96545.97;4972357;28;20223;-78
2022/04/07 08:30:45;;;;;;;2.10;1.83;;;;;;;9.09;100.00;96534.09;4978703;28;20200;-78
2022/04/07 08:33:16;;;;;;;1.70;1.60;;;;;;;9.15;100.00;96544.84;4976087;28;20214;-77
2022/04/07 08:35:44;;;;;;;1.67;1.50;;;;;;;9.15;100.00;96539.56;4973824;28;20223;-77
2022/04/07 08:38:15;;;;;;;1.40;1.30;;;;;;;9.16;100.00;96527.19;4976253;28;20199;-77
2022/04/07 08:40:44;;;;;;;1.60;1.33;;;;;;;9.18;100.00;96507.59;4977295;28;20207;-78
2022/04/07 08:43:13;;;;;;;1.67;1.30;;;;;;;9.15;100.00;96517.59;4974113;28;20204;-77
2022/04/07 08:45:42;;;;;;;2.57;1.13;;;;;;;9.16;100.00;96506.06;4973565;28;20210;-77
2022/04/07 08:48:12;;;;;;;0.97;0.97;;;;;;;9.23;100.00;96503.63;4978448;28;20192;-77
2022/04/07 08:50:41;;;;;;;1.63;1.00;;;;;;;9.22;100.00;96491.41;4976115;28;20206;-78
2022/04/07 08:53:10;;;;;;;1.20;1.10;;;;;;;9.17;100.00;96491.91;4976259;28;20247;-77
2022/04/07 08:55:41;;;;;;;1.87;1.10;;;;;;;9.25;100.00;96469.97;4973034;28;20230;-78
2022/04/07 08:58:17;;;;;;;1.30;1.20;;;;;;;9.25;100.00;96475.25;4975975;28;20292;-78
2022/04/07 09:00:47;;;;;;;2.70;1.27;;;;;;;9.29;100.00;96461.59;4975974;28;20203;-77
2022/04/07 09:03:15;;;;;;;2.10;1.30;;;;;;;9.33;100.00;96455.00;4974209;28;20207;-77
2022/04/07 09:05:54;;;;;;;1.97;1.13;;;;;;;9.41;100.00;96441.84;4974771;28;20203;-77
2022/04/07 09:08:30;;;;;;;1.33;1.10;;;;;;;9.45;100.00;96442.34;4976302;28;20211;-77
2022/04/07 09:11:05;;;;;;;1.37;1.27;;;;;;;9.44;100.00;96443.34;4972720;28;20199;-78
2022/04/07 09:13:35;;;;;;;2.27;1.43;;;;;;;9.40;100.00;96432.28;4926037;28;20191;-78
2022/04/07 09:16:04;;;;;;;1.87;1.30;;;;;;;9.43;100.00;96431.94;4970550;28;20227;-77
2022/04/07 09:18:35;;;;;;;2.03;1.60;;;;;;;9.48;100.00;96431.47;4965347;28;20200;-77
2022/04/07 09:21:04;;;;;;;1.40;1.20;;;;;;;9.49;100.00;96445.50;4969399;28;20196;-77
2022/04/07 09:23:41;;;;;;;1.43;1.33;;;;;;;9.59;100.00;96428.56;4973244;28;20319;-77
2022/04/07 09:26:13;;;;;;;1.83;1.50;;;;;;;9.57;100.00;96419.97;4969311;28;20237;-77
2022/04/07 09:28:42;;;;;;;3.97;1.50;;;;;;;9.59;100.00;96419.81;4974240;28;20227;-78
2022/04/07 09:31:15;;;;;;;3.17;1.60;;;;;;;9.62;100.00;96391.22;4974810;28;20482;-77
2022/04/07 09:33:44;;;;;;;1.77;1.10;;;;;;;9.67;100.00;96396.06;4968458;28;20270;-77
2022/04/07 09:36:19;;;;;;;3.27;2.30;;;;;;;9.69;100.00;96384.31;4975248;28;20212;-77
2022/04/07 09:38:54;;;;;;;2.07;1.83;;;;;;;9.73;100.00;96376.88;4974874;28;20209;-78
2022/04/07 09:41:24;;;;;;;1.10;1.10;;;;;;;9.68;100.00;96372.09;4977592;28;20202;-78
2022/04/07 09:43:57;;;;;;;3.57;1.60;;;;;;;9.69;100.00;96383.50;4975728;28;20283;-77
2022/04/07 09:46:27;;;;;;;1.90;1.40;;;;;;;9.74;100.00;96358.22;4972924;28;20212;-77
2022/04/07 09:49:04;;;;;;;1.50;1.40;;;;;;;9.80;100.00;96369.16;4975026;28;20200;-77
2022/04/07 09:51:40;;;;;;;1.33;1.23;;;;;;;9.84;100.00;96352.78;4974866;28;20246;-77
2022/04/07 09:54:10;;;;;;;3.43;1.17;;;;;;;9.89;100.00;96347.84;4973730;28;20210;-78
2022/04/07 09:56:41;;;;;;;1.50;1.27;;;;;;;9.86;100.00;96342.91;4973182;28;20219;-77
2022/04/07 09:59:09;;;;;;;2.43;1.20;;;;;;;9.87;100.00;96347.19;4974057;28;20204;-77
2022/04/07 10:01:38;;;;;;;1.53;1.40;;;;;;;9.91;100.00;96339.75;4971222;28;20196;-77
2022/04/07 10:04:08;;;;;;;3.20;1.40;;;;;;;10.00;100.00;96328.19;4976152;28;20238;-78
2022/04/07 10:06:39;;;;;;;2.30;1.37;;;;;;;10.08;100.00;96330.03;4973462;28;20207;-77
2022/04/07 10:09:11;;;;;;;1.20;1.10;;;;;;;10.06;100.00;96319.63;4973572;28;20200;-78
2022/04/07 10:11:44;;;;;;;2.67;1.60;;;;;;;9.96;100.00;96321.59;4971530;28;20195;-77
2022/04/07 10:14:14;;;;;;;1.57;1.30;;;;;;;10.09;100.00;96299.94;4976983;28;20628;-77
2022/04/07 10:16:47;;;;;;;2.97;1.23;;;;;;;10.12;100.00;96296.97;4971595;28;20246;-77
2022/04/07 10:19:22;;;;;;;1.87;1.17;;;;;;;10.26;100.00;96296.34;4974092;28;20366;-77
2022/04/07 10:22:08;;;;;;;1.63;1.20;;;;;;;10.24;100.00;96285.94;4969549;28;20254;-77
2022/04/07 10:24:44;;;;;;;1.17;1.07;;;;;;;10.35;100.00;96276.81;4956293;28;20230;-77
2022/04/07 10:27:37;;;;;;;1.37;1.10;;;;;;;10.32;100.00;96264.75;4974603;28;20491;-77
2022/04/07 10:30:09;;;;;;;1.20;1.03;;;;;;;10.39;100.00;96256.97;4976769;28;20289;-77
2022/04/07 10:32:42;;;;;;;0.73;0.73;;;;;;;10.52;100.00;96254.63;4975635;28;20188;-78
2022/04/07 10:35:12;;;;;;;1.23;0.80;;;;;;;10.67;100.00;96235.41;4974630;28;20238;-78
2022/04/07 10:37:47;;;;;;;2.10;1.20;;;;;;;10.69;100.00;96231.56;4974473;28;20223;-77
2022/04/07 10:40:36;;;;;;;2.63;1.20;;;;;;;10.77;100.00;96220.13;4973643;28;20206;-78
2022/04/07 10:43:13;;;;;;;1.47;1.17;;;;;;;10.78;100.00;96206.72;4973204;28;20208;-78
2022/04/07 10:45:42;;;;;;;1.93;1.30;;;;;;;10.92;100.00;96201.72;4953736;28;20279;-78
2022/04/07 10:48:26;;;;;;;1.70;1.40;;;;;;;10.96;100.00;96195.88;4969286;28;20200;-78
2022/04/07 10:51:00;;;;;;;2.10;1.27;;;;;;;11.06;100.00;96171.84;4972239;28;20192;-78
2022/04/07 10:53:34;;;;;;;1.00;0.90;;;;;;;11.11;100.00;96177.44;4977896;28;20207;-78
2022/04/07 10:56:07;;;;;;;1.37;0.80;;;;;;;11.29;100.00;96146.19;4952724;28;20232;-78
2022/04/07 10:58:49;;;;;;;1.67;0.93;;;;;;;11.30;100.00;96153.16;4949969;28;20212;-77
2022/04/07 11:01:52;;;;;;;1.33;1.03;;;;;;;11.42;100.00;96149.06;4950839;28;20204;-77
2022/04/07 11:05:01;;;;;;;1.63;0.80;;;;;;;11.41;100.00;96136.00;4952323;28;20204;-77
2022/04/07 11:07:37;;;;;;;1.10;0.80;;;;;;;11.46;100.00;96101.84;4949936;28;20222;-77
2022/04/07 11:10:12;;;;;;;0.63;0.60;;;;;;;11.49;100.00;96116.56;4949472;28;20204;-77
2022/04/07 11:12:44;;;;;;;1.23;0.73;;;;;;;11.50;100.00;96103.13;4950089;28;20210;-77
2022/04/07 11:15:51;;;;;;;0.77;0.60;;;;;;;11.49;100.00;96085.59;4974287;28;20211;-77
2022/04/07 11:19:04;;;;;;;0.53;0.50;;;;;;;11.53;100.00;96088.69;4883568;29;20245;-77
2022/04/07 11:21:45;;;;;;;1.13;0.50;;;;;;;11.45;100.00;96068.38;4899373;29;20210;-77
2022/04/07 11:24:23;;;;;;;0.50;0.50;;;;;;;11.49;100.00;96098.84;4897846;29;20238;-77
2022/04/07 11:26:54;;;;;;;1.20;0.50;;;;;;;11.51;100.00;96048.31;4900727;29;20257;-77
2022/04/07 11:29:33;;;;;;;2.10;0.60;;;;;;;11.43;100.00;96051.84;4896126;29;20198;-78
2022/04/07 11:32:11;;;;;;;0.60;0.50;;;;;;;11.46;100.00;96049.66;4900543;29;20202;-77
2022/04/07 11:34:50;;;;;;;1.13;0.50;;;;;;;11.52;100.00;96042.81;4898889;29;20830;-77
2022/04/07 11:37:19;;;;;;;0.30;0.30;;;;;;;11.61;100.00;96036.44;4945105;28;20786;-77
2022/04/07 11:39:50;;;;;;;0.50;0.50;;;;;;;11.80;100.00;96016.53;4950949;28;20312;-78
2022/04/07 11:42:19;;;;;;;3.23;3.00;;;;;;;11.90;100.00;96022.41;4947709;28;20217;-78
2022/04/07 11:44:48;;;;;;;1.40;0.80;;;;;;;12.03;100.00;96005.81;4950748;28;20208;-77
2022/04/07 11:47:26;;;;;;;0.53;0.40;;;;;;;12.18;100.00;96014.59;4954174;28;20200;-77
2022/04/07 11:50:00;;;;;;;0.50;0.50;;;;;;;12.30;100.00;95999.84;4947462;28;20215;-78